createdAt,value
2018-05-12T00:02:15.795Z,11.10
2018-05-12T00:04:43.242Z,13.50
2018-05-12T00:07:10.698Z,10.30
2018-05-12T00:09:38.917Z,10.87
2018-05-12T00:12:07.154Z,12.33
2018-05-12T00:14:34.594Z,11.30
2018-05-12T00:17:02.057Z,14.37
2018-05-12T00:19:29.519Z,14.77
2018-05-12T00:21:56.979Z,12.40
2018-05-12T00:24:24.438Z,11.97
2018-05-12T00:26:51.903Z,10.93
2018-05-12T00:29:19.350Z,10.67
2018-05-12T00:31:46.809Z,11.70
2018-05-12T00:34:14.287Z,10.77
2018-05-12T00:36:41.725Z,11.20
2018-05-12T00:39:09.174Z,11.40
2018-05-12T00:41:36.637Z,13.40
2018-05-12T00:44:04.090Z,12.73
2018-05-12T00:46:31.539Z,13.80
2018-05-12T00:48:58.989Z,13.30
2018-05-12T00:51:26.562Z,11.73
2018-05-12T00:53:54.018Z,11.50
2018-05-12T00:56:21.478Z,11.47
2018-05-12T00:58:48.957Z,14.13
2018-05-12T01:01:16.402Z,15.20
2018-05-12T01:03:44.667Z,11.60
2018-05-12T01:06:12.117Z,14.97
2018-05-12T01:08:39.575Z,15.50
2018-05-12T01:11:07.038Z,11.83
2018-05-12T01:13:34.639Z,11.30
2018-05-12T01:16:02.589Z,13.00
2018-05-12T01:18:30.043Z,12.03
2018-05-12T01:20:57.498Z,12.37
2018-05-12T01:23:24.943Z,15.17
2018-05-12T01:25:52.407Z,12.60
2018-05-12T01:28:19.856Z,11.77
2018-05-12T01:30:47.310Z,12.30
2018-05-12T01:33:14.762Z,15.07
2018-05-12T01:35:42.219Z,13.53
2018-05-12T01:38:09.663Z,14.93
2018-05-12T01:40:37.115Z,15.67
2018-05-12T01:43:04.571Z,19.90
2018-05-12T01:45:32.026Z,17.90
2018-05-12T01:47:59.486Z,15.30
2018-05-12T01:50:26.939Z,16.97
2018-05-12T01:52:54.415Z,16.50
2018-05-12T01:55:21.857Z,18.27
2018-05-12T01:57:49.311Z,15.57
2018-05-12T02:00:16.764Z,15.57
2018-05-12T02:02:44.210Z,18.13
2018-05-12T02:05:11.670Z,14.67
2018-05-12T02:07:39.138Z,19.17
2018-05-12T02:10:06.607Z,18.97
2018-05-12T02:12:34.068Z,15.20
2018-05-12T02:15:01.514Z,16.37
2018-05-12T02:17:28.966Z,15.20
2018-05-12T02:19:56.422Z,16.13
2018-05-12T02:22:23.875Z,16.17
2018-05-12T02:24:51.341Z,19.53
2018-05-12T02:27:19.767Z,15.23
2018-05-12T02:29:47.230Z,16.33
2018-05-12T02:32:14.683Z,19.17
2018-05-12T02:34:42.139Z,18.60
2018-05-12T02:37:09.582Z,17.97
2018-05-12T02:39:37.031Z,14.97
2018-05-12T02:42:04.486Z,18.40
2018-05-12T02:44:31.933Z,15.80
2018-05-12T02:47:00.396Z,15.63
2018-05-12T02:49:27.832Z,19.50
2018-05-12T02:51:55.282Z,21.23
2018-05-12T02:54:24.782Z,18.10
2018-05-12T02:56:52.995Z,18.53
2018-05-12T02:59:20.454Z,19.47
2018-05-12T03:01:47.902Z,20.23
2018-05-12T03:04:15.362Z,19.97
2018-05-12T03:06:42.818Z,18.60
2018-05-12T03:09:10.263Z,21.83
2018-05-12T03:11:37.711Z,22.97
2018-05-12T03:14:05.178Z,21.57
2018-05-12T03:16:32.639Z,19.07
2018-05-12T03:19:00.102Z,19.83
2018-05-12T03:21:27.547Z,25.17
2018-05-12T03:23:55.006Z,20.33
2018-05-12T03:26:22.450Z,24.17
2018-05-12T03:28:50.674Z,23.60
2018-05-12T03:31:18.127Z,23.10
2018-05-12T03:33:45.597Z,22.40
2018-05-12T03:36:13.052Z,20.63
2018-05-12T03:38:40.514Z,28.43
2018-05-12T03:41:07.966Z,24.17
2018-05-12T03:43:35.518Z,22.00
2018-05-12T03:46:02.958Z,24.20
2018-05-12T03:48:30.409Z,30.93
2018-05-12T03:50:57.884Z,27.30
2018-05-12T03:53:25.982Z,23.70
2018-05-12T03:55:53.425Z,23.30
2018-05-12T03:58:20.883Z,31.83
2018-05-12T04:00:48.342Z,28.47
2018-05-12T04:03:15.791Z,27.87
2018-05-12T04:05:55.110Z,29.03
2018-05-12T04:08:34.283Z,31.10
2018-05-12T04:11:13.748Z,30.10
2018-05-12T04:13:41.966Z,27.40
2018-05-12T04:16:09.422Z,32.27
2018-05-12T04:18:38.488Z,26.53
2018-05-12T04:21:05.954Z,32.20
2018-05-12T04:23:33.407Z,31.20
2018-05-12T04:26:00.867Z,29.20
2018-05-12T04:28:28.326Z,29.67
2018-05-12T04:30:55.780Z,29.50
2018-05-12T04:33:23.234Z,25.53
2018-05-12T04:35:50.691Z,26.83
2018-05-12T04:38:18.153Z,21.77
2018-05-12T04:40:45.606Z,17.20
2018-05-12T04:43:13.078Z,17.53
2018-05-12T04:45:40.518Z,14.57
2018-05-12T04:48:08.677Z,13.07
2018-05-12T04:50:36.123Z,12.93
2018-05-12T04:53:04.351Z,13.87
2018-05-12T04:55:31.810Z,14.83
2018-05-12T04:57:59.998Z,14.60
2018-05-12T05:00:28.344Z,14.37
2018-05-12T05:02:56.714Z,14.73
2018-05-12T05:05:24.350Z,12.73
2018-05-12T05:07:51.803Z,11.80
2018-05-12T05:10:20.022Z,13.93
2018-05-12T05:12:48.414Z,13.30
2018-05-12T05:15:15.953Z,11.77
2018-05-12T05:17:43.318Z,10.13
2018-05-12T05:20:10.770Z,14.10
2018-05-12T05:22:38.234Z,11.37
2018-05-12T05:25:05.682Z,11.90
2018-05-12T05:27:33.138Z,12.63
2018-05-12T05:30:00.591Z,10.83
2018-05-12T05:32:28.053Z,10.17
2018-05-12T05:34:56.282Z,11.57
2018-05-12T05:37:24.498Z,11.13
2018-05-12T05:39:51.951Z,12.00
2018-05-12T05:42:19.430Z,10.90
2018-05-12T05:44:46.967Z,10.40
2018-05-12T05:47:14.422Z,10.37
2018-05-12T05:49:41.874Z,11.37
2018-05-12T05:52:09.343Z,10.47
2018-05-12T05:54:36.773Z,10.80
2018-05-12T05:57:04.241Z,11.90
2018-05-12T05:59:31.771Z,11.90
2018-05-12T06:01:59.150Z,11.70
2018-05-12T06:04:26.598Z,10.67
2018-05-12T06:06:54.125Z,12.40
2018-05-12T06:09:21.531Z,11.13
2018-05-12T06:11:48.991Z,10.30
2018-05-12T06:14:16.499Z,11.07
2018-05-12T06:16:43.938Z,11.37
2018-05-12T06:19:11.399Z,11.80
2018-05-12T06:21:38.861Z,12.27
2018-05-12T06:24:06.325Z,11.20
2018-05-12T06:26:34.067Z,12.40
2018-05-12T06:29:01.538Z,11.67
2018-05-12T06:31:28.990Z,11.13
2018-05-12T06:33:56.446Z,11.47
2018-05-12T06:36:23.903Z,9.73
2018-05-12T06:38:51.372Z,10.20
2018-05-12T06:41:18.822Z,9.97
2018-05-12T06:43:46.269Z,10.47
2018-05-12T06:46:13.736Z,9.73
2018-05-12T06:48:41.190Z,10.93
2018-05-12T06:51:08.641Z,11.13
2018-05-12T06:53:36.459Z,10.13
2018-05-12T06:56:03.849Z,10.17
2018-05-12T06:58:31.309Z,9.97
2018-05-12T07:00:59.153Z,10.33
2018-05-12T07:03:26.620Z,9.27
2018-05-12T07:05:54.071Z,9.67
2018-05-12T07:08:21.521Z,11.00
2018-05-12T07:10:48.966Z,10.10
2018-05-12T07:13:16.437Z,9.10
2018-05-12T07:15:43.891Z,10.53
2018-05-12T07:18:11.339Z,10.33
2018-05-12T07:20:38.794Z,10.60
2018-05-12T07:23:06.246Z,11.00
2018-05-12T07:25:33.709Z,11.23
2018-05-12T07:28:01.159Z,10.30
2018-05-12T07:30:28.618Z,10.77
2018-05-12T07:32:56.074Z,11.17
2018-05-12T07:35:23.526Z,10.10
2018-05-12T07:37:50.966Z,10.57
2018-05-12T07:40:19.195Z,10.70
2018-05-12T07:42:47.357Z,9.93
2018-05-12T07:45:14.811Z,11.23
2018-05-12T07:47:42.275Z,12.53
2018-05-12T07:50:09.727Z,11.60
2018-05-12T07:52:37.169Z,10.60
2018-05-12T07:55:04.637Z,11.63
2018-05-12T07:57:32.080Z,10.93
2018-05-12T07:59:59.542Z,10.30
2018-05-12T08:02:26.995Z,10.37
2018-05-12T08:04:54.441Z,11.30
2018-05-12T08:07:21.903Z,10.90
2018-05-12T08:09:49.350Z,10.53
2018-05-12T08:12:17.578Z,10.80
2018-05-12T08:14:45.361Z,10.60
2018-05-12T08:17:12.806Z,10.43
2018-05-12T08:19:40.263Z,11.83
2018-05-12T08:22:07.710Z,10.27
2018-05-12T08:24:35.159Z,12.27
2018-05-12T08:27:03.235Z,11.70
2018-05-12T08:29:30.693Z,12.00
2018-05-12T08:31:58.150Z,11.40
2018-05-12T08:34:25.626Z,11.47
2018-05-12T08:36:53.087Z,12.47
2018-05-12T08:39:20.538Z,10.53
2018-05-12T08:41:47.988Z,10.50
2018-05-12T08:44:15.449Z,8.87
2018-05-12T08:46:42.903Z,9.23
2018-05-12T08:49:10.639Z,9.63
2018-05-12T08:51:38.088Z,10.03
2018-05-12T08:54:05.530Z,10.20
2018-05-12T08:56:32.990Z,10.00
2018-05-12T08:59:00.443Z,7.87
2018-05-12T09:01:28.688Z,6.33
2018-05-12T09:03:56.123Z,11.20
2018-05-12T09:06:23.574Z,9.40
2018-05-12T09:08:51.028Z,7.20
2018-05-12T09:11:18.470Z,9.03
2018-05-12T09:13:45.922Z,4.70
2018-05-12T09:16:13.383Z,6.60
2018-05-12T09:18:40.836Z,4.93
2018-05-12T09:21:08.294Z,7.43
2018-05-12T09:23:35.750Z,7.17
2018-05-12T09:26:03.243Z,8.23
2018-05-12T09:28:30.691Z,5.53
2018-05-12T09:30:58.142Z,8.03
2018-05-12T09:33:25.602Z,5.07
2018-05-12T09:35:53.062Z,5.77
2018-05-12T09:38:21.300Z,5.73
2018-05-12T09:40:48.738Z,5.67
2018-05-12T09:43:17.251Z,4.87
2018-05-12T09:45:44.696Z,6.20
2018-05-12T09:48:12.134Z,6.70
2018-05-12T09:50:40.377Z,9.07
2018-05-12T09:53:07.820Z,7.97
2018-05-12T09:55:35.263Z,6.40
2018-05-12T09:58:03.482Z,5.80
2018-05-12T10:00:30.937Z,7.40
2018-05-12T10:02:58.418Z,7.43
2018-05-12T10:05:25.874Z,7.37
2018-05-12T10:07:54.086Z,10.23
2018-05-12T10:10:21.579Z,6.07
2018-05-12T10:12:49.105Z,5.53
2018-05-12T10:15:16.894Z,5.33
2018-05-12T10:17:44.393Z,6.13
2018-05-12T10:20:11.846Z,5.33
2018-05-12T10:22:39.285Z,6.23
2018-05-12T10:25:07.501Z,5.87
2018-05-12T10:27:34.956Z,5.80
2018-05-12T10:30:02.413Z,6.23
2018-05-12T10:32:29.850Z,7.73
2018-05-12T10:34:57.328Z,6.80
2018-05-12T10:37:25.122Z,6.70
2018-05-12T10:39:52.558Z,7.17
2018-05-12T10:42:20.022Z,6.87
2018-05-12T10:44:47.536Z,6.83
2018-05-12T10:47:14.919Z,6.90
2018-05-12T10:49:42.371Z,7.40
2018-05-12T10:52:09.834Z,6.57
2018-05-12T10:54:37.291Z,6.73
2018-05-12T10:57:04.753Z,8.13
2018-05-12T10:59:32.206Z,9.33
2018-05-12T11:01:59.702Z,9.67
2018-05-12T11:04:27.390Z,12.10
2018-05-12T11:06:55.601Z,8.40
2018-05-12T11:09:23.084Z,8.33
2018-05-12T11:11:51.290Z,7.40
2018-05-12T11:14:20.071Z,8.83
2018-05-12T11:16:47.514Z,8.20
2018-05-12T11:19:14.971Z,6.10
2018-05-12T11:21:42.457Z,6.30
2018-05-12T11:24:09.890Z,5.83
2018-05-12T11:26:37.592Z,7.27
2018-05-12T11:29:05.030Z,6.30
2018-05-12T11:31:32.458Z,5.60
2018-05-12T11:34:00.014Z,6.57
2018-05-12T11:36:27.449Z,6.53
2018-05-12T11:38:54.897Z,5.90
2018-05-12T11:41:22.354Z,6.10
2018-05-12T11:43:49.810Z,6.70
2018-05-12T11:46:17.266Z,7.00
2018-05-12T11:48:44.722Z,6.80
2018-05-12T11:51:12.175Z,6.63
2018-05-12T11:53:39.634Z,5.47
2018-05-12T11:56:07.078Z,5.93
2018-05-12T11:58:35.030Z,6.60
2018-05-12T12:01:03.250Z,5.33
2018-05-12T12:03:30.693Z,7.40
2018-05-12T12:05:58.487Z,7.00
2018-05-12T12:08:25.931Z,6.83
2018-05-12T12:10:53.374Z,5.90
2018-05-12T12:13:20.831Z,5.90
2018-05-12T12:15:48.286Z,5.83
2018-05-12T12:18:15.746Z,7.80
2018-05-12T12:20:43.204Z,6.30
2018-05-12T12:23:10.662Z,5.63
2018-05-12T12:25:38.566Z,6.13
2018-05-12T12:28:06.004Z,6.10
2018-05-12T12:30:33.458Z,9.27
2018-05-12T12:33:00.898Z,7.00
2018-05-12T12:35:28.359Z,6.73
2018-05-12T12:37:55.809Z,9.17
2018-05-12T12:40:23.267Z,7.17
2018-05-12T12:42:50.706Z,6.80
2018-05-12T12:45:18.263Z,6.70
2018-05-12T12:47:45.723Z,5.50
2018-05-12T12:50:13.170Z,5.20
2018-05-12T12:52:41.394Z,7.17
2018-05-12T12:55:08.955Z,6.23
2018-05-12T12:57:37.810Z,6.60
2018-05-12T13:00:05.261Z,6.90
2018-05-12T13:02:32.718Z,7.47
2018-05-12T13:05:00.195Z,7.27
2018-05-12T13:07:27.630Z,7.00
2018-05-12T13:09:55.086Z,7.53
2018-05-12T13:12:22.526Z,8.60
2018-05-12T13:14:50.749Z,7.10
2018-05-12T13:17:18.200Z,8.83
2018-05-12T13:19:46.368Z,7.23
2018-05-12T13:22:13.925Z,7.13
2018-05-12T13:24:41.278Z,10.43
2018-05-12T13:27:08.722Z,7.30
2018-05-12T13:29:36.192Z,7.70
2018-05-12T13:32:03.634Z,6.87
2018-05-12T13:34:31.080Z,6.40
2018-05-12T13:36:59.399Z,6.80
2018-05-12T13:39:26.846Z,8.73
2018-05-12T13:41:54.299Z,8.10
2018-05-12T13:44:21.754Z,6.77
2018-05-12T13:46:49.211Z,7.23
2018-05-12T13:49:16.650Z,6.30
2018-05-12T13:51:44.098Z,6.73
2018-05-12T13:54:12.893Z,7.70
2018-05-12T13:56:40.348Z,7.07
2018-05-12T13:59:07.785Z,8.80
2018-05-12T14:01:36.019Z,6.83
2018-05-12T14:04:03.842Z,6.03
2018-05-12T14:06:31.306Z,6.57
2018-05-12T14:08:58.772Z,6.90
2018-05-12T14:11:26.210Z,7.87
2018-05-12T14:13:54.445Z,6.73
2018-05-12T14:16:22.776Z,7.10
2018-05-12T14:18:50.228Z,7.90
2018-05-12T14:21:17.682Z,6.97
2018-05-12T14:23:46.331Z,7.03
2018-05-12T14:26:13.795Z,7.50
2018-05-12T14:28:41.238Z,7.53
2018-05-12T14:31:08.685Z,7.90
2018-05-12T14:33:36.139Z,8.00
2018-05-12T14:36:03.592Z,10.43
2018-05-12T14:38:31.311Z,7.67
2018-05-12T14:40:59.527Z,7.57
2018-05-12T14:43:26.968Z,9.70
2018-05-12T14:45:54.436Z,7.70
2018-05-12T14:48:21.883Z,7.23
2018-05-12T14:50:49.894Z,6.83
2018-05-12T14:53:17.342Z,7.17
2018-05-12T14:55:44.814Z,7.23
2018-05-12T14:58:12.262Z,7.87
2018-05-12T15:00:39.706Z,7.13
2018-05-12T15:03:07.162Z,6.67
2018-05-12T15:05:34.602Z,6.90
2018-05-12T15:08:02.073Z,6.53
2018-05-12T15:10:29.523Z,7.47
2018-05-12T15:12:56.966Z,7.63
2018-05-12T15:15:24.421Z,6.90
2018-05-12T15:17:52.803Z,8.80
2018-05-12T15:20:20.262Z,6.60
2018-05-12T15:22:47.709Z,6.47
2018-05-12T15:25:15.146Z,6.27
2018-05-12T15:27:43.362Z,6.40
2018-05-12T15:30:10.812Z,6.23
2018-05-12T15:32:38.274Z,6.50
2018-05-12T15:35:05.714Z,6.90
2018-05-12T15:37:33.173Z,7.53
2018-05-12T15:40:00.611Z,7.10
2018-05-12T15:42:28.087Z,49.27
2018-05-12T15:44:55.539Z,32.20
2018-05-12T15:47:23.002Z,17.60
2018-05-12T15:49:50.521Z,9.50
2018-05-12T15:52:17.919Z,8.07
2018-05-12T15:54:45.370Z,6.90
2018-05-12T15:57:13.318Z,7.97
2018-05-12T15:59:41.414Z,7.30
2018-05-12T16:02:08.874Z,8.40
2018-05-12T16:04:36.736Z,7.73
2018-05-12T16:07:04.178Z,6.00
2018-05-12T16:09:32.059Z,6.60
2018-05-12T16:11:59.518Z,6.70
2018-05-12T16:14:26.989Z,6.20
2018-05-12T16:16:54.466Z,13.77
2018-05-12T16:19:21.923Z,7.03
2018-05-12T16:21:49.375Z,7.00
2018-05-12T16:24:16.826Z,6.60
2018-05-12T16:26:44.279Z,6.50
2018-05-12T16:29:11.771Z,7.10
2018-05-12T16:31:39.209Z,5.90
2018-05-12T16:34:06.643Z,6.67
2018-05-12T16:36:34.092Z,6.33
2018-05-12T16:39:01.555Z,6.80
2018-05-12T16:41:29.002Z,8.33
2018-05-12T16:43:56.458Z,7.60
2018-05-12T16:46:23.914Z,7.50
2018-05-12T16:48:51.379Z,6.37
2018-05-12T16:51:18.854Z,6.27
2018-05-12T16:53:46.630Z,8.13
2018-05-12T16:56:14.083Z,6.77
2018-05-12T16:58:41.522Z,13.23
2018-05-12T17:01:08.997Z,10.50
2018-05-12T17:03:36.434Z,8.67
2018-05-12T17:06:03.903Z,7.97
2018-05-12T17:08:31.357Z,8.73
2018-05-12T17:10:58.803Z,30.20
2018-05-12T17:13:26.262Z,28.17
2018-05-12T17:15:53.726Z,11.50
2018-05-12T17:18:21.186Z,16.37
2018-05-12T17:20:49.154Z,10.07
2018-05-12T17:23:16.667Z,6.77
2018-05-12T17:25:44.043Z,6.47
2018-05-12T17:28:11.501Z,5.83
2018-05-12T17:30:38.939Z,5.80
2018-05-12T17:33:06.404Z,5.80
2018-05-12T17:35:33.838Z,6.10
2018-05-12T17:38:02.046Z,5.93
2018-05-12T17:40:29.503Z,6.53
2018-05-12T17:42:56.946Z,5.20
2018-05-12T17:45:24.418Z,5.97
2018-05-12T17:47:51.875Z,8.50
2018-05-12T17:50:19.337Z,6.07
2018-05-12T17:52:46.786Z,5.20
2018-05-12T17:55:14.246Z,6.37
2018-05-12T17:57:41.690Z,6.50
2018-05-12T18:00:09.158Z,6.67
2018-05-12T18:02:36.602Z,6.37
2018-05-12T18:05:04.046Z,7.70
2018-05-12T18:07:32.266Z,6.07
2018-05-12T18:09:59.701Z,6.47
2018-05-12T18:12:27.163Z,6.20
2018-05-12T18:14:54.618Z,5.77
2018-05-12T18:17:22.116Z,5.70
2018-05-12T18:19:49.537Z,6.40
2018-05-12T18:22:17.880Z,6.70
2018-05-12T18:24:46.100Z,8.60
2018-05-12T18:27:14.441Z,6.33
2018-05-12T18:29:41.899Z,6.20
2018-05-12T18:32:09.338Z,8.00
2018-05-12T18:34:37.605Z,9.07
2018-05-12T18:37:05.006Z,6.00
2018-05-12T18:39:32.463Z,6.80
2018-05-12T18:41:59.935Z,8.63
2018-05-12T18:44:27.388Z,7.23
2018-05-12T18:46:54.853Z,8.33
2018-05-12T18:49:22.479Z,8.17
2018-05-12T18:51:49.979Z,7.07
2018-05-12T18:54:17.427Z,7.57
2018-05-12T18:56:44.944Z,10.50
2018-05-12T18:59:12.326Z,6.40
2018-05-12T19:01:39.779Z,7.83
2018-05-12T19:04:07.261Z,8.10
2018-05-12T19:06:34.702Z,7.30
2018-05-12T19:09:02.151Z,6.70
2018-05-12T19:11:29.615Z,7.20
2018-05-12T19:13:57.067Z,8.20
2018-05-12T19:16:24.876Z,9.30
2018-05-12T19:18:52.322Z,9.47
2018-05-12T19:21:19.761Z,7.50
2018-05-12T19:23:47.216Z,7.40
2018-05-12T19:26:14.661Z,8.87
2018-05-12T19:28:42.115Z,9.10
2018-05-12T19:31:10.019Z,8.37
2018-05-12T19:33:37.483Z,9.27
2018-05-12T19:36:04.922Z,8.27
2018-05-12T19:38:32.739Z,8.43
2018-05-12T19:41:00.192Z,8.30
2018-05-12T19:43:28.410Z,7.57
2018-05-12T19:45:55.869Z,7.97
2018-05-12T19:48:23.323Z,8.37
2018-05-12T19:50:50.764Z,7.37
2018-05-12T19:53:18.224Z,8.83
2018-05-12T19:55:45.680Z,9.83
2018-05-12T19:58:13.134Z,7.97
2018-05-12T20:00:40.587Z,7.33
2018-05-12T20:03:08.049Z,10.67
2018-05-12T20:05:35.500Z,9.10
2018-05-12T20:08:02.946Z,10.23
2018-05-12T20:10:30.386Z,8.33
2018-05-12T20:12:58.602Z,8.40
2018-05-12T20:15:26.055Z,7.93
2018-05-12T20:17:53.790Z,7.33
2018-05-12T20:20:21.235Z,6.83
2018-05-12T20:22:49.966Z,6.97
2018-05-12T20:25:18.886Z,6.90
2018-05-12T20:27:46.344Z,7.97
2018-05-12T20:30:13.783Z,9.37
2018-05-12T20:32:41.238Z,8.83
2018-05-12T20:35:08.697Z,5.60
2018-05-12T20:37:36.572Z,8.20
2018-05-12T20:40:03.998Z,6.70
2018-05-12T20:42:31.456Z,7.43
2018-05-12T20:44:58.907Z,7.47
2018-05-12T20:47:26.368Z,6.30
2018-05-12T20:49:53.820Z,6.80
2018-05-12T20:52:22.583Z,7.27
2018-05-12T20:54:51.194Z,7.03
2018-05-12T20:57:18.663Z,8.63
2018-05-12T20:59:46.115Z,9.33
2018-05-12T21:02:13.567Z,6.93
2018-05-12T21:04:41.030Z,15.43
2018-05-12T21:07:08.477Z,6.83
2018-05-12T21:09:35.922Z,7.77
2018-05-12T21:12:03.374Z,6.40
2018-05-12T21:14:31.186Z,7.10
2018-05-12T21:16:58.644Z,7.67
2018-05-12T21:19:26.095Z,6.47
2018-05-12T21:21:53.553Z,6.00
2018-05-12T21:24:21.006Z,7.00
2018-05-12T21:26:48.458Z,9.27
2018-05-12T21:29:15.904Z,7.40
2018-05-12T21:31:43.372Z,6.77
2018-05-12T21:34:11.406Z,7.43
2018-05-12T21:36:38.856Z,6.40
2018-05-12T21:39:07.070Z,10.10
2018-05-12T21:41:34.527Z,7.90
2018-05-12T21:44:01.979Z,7.33
2018-05-12T21:46:30.367Z,7.93
2018-05-12T21:48:57.834Z,7.27
2018-05-12T21:51:25.336Z,6.20
2018-05-12T21:53:52.792Z,6.53
2018-05-12T21:56:21.007Z,6.67
2018-05-12T21:58:48.458Z,6.87
2018-05-12T22:01:15.917Z,5.83
2018-05-12T22:03:43.358Z,11.33
2018-05-12T22:06:10.831Z,6.43
2018-05-12T22:08:38.273Z,6.43
2018-05-12T22:11:05.715Z,6.33
2018-05-12T22:13:33.938Z,7.03
2018-05-12T22:16:01.392Z,6.40
2018-05-12T22:18:28.879Z,6.57
2018-05-12T22:20:56.619Z,7.40
2018-05-12T22:23:24.066Z,7.33
2018-05-12T22:25:51.515Z,7.43
2018-05-12T22:28:18.989Z,7.60
2018-05-12T22:30:46.442Z,12.10
2018-05-12T22:33:13.883Z,8.30
2018-05-12T22:35:41.348Z,8.43
2018-05-12T22:38:08.794Z,7.57
2018-05-12T22:40:36.247Z,9.67
2018-05-12T22:43:04.217Z,8.80
2018-05-12T22:45:31.681Z,7.57
2018-05-12T22:47:59.135Z,7.97
2018-05-12T22:50:26.591Z,8.47
2018-05-12T22:52:54.030Z,9.50
2018-05-12T22:55:21.474Z,8.37
2018-05-12T22:57:49.706Z,8.77
2018-05-12T23:00:17.601Z,8.87
2018-05-12T23:02:45.037Z,8.70
2018-05-12T23:05:12.504Z,7.20
2018-05-12T23:07:39.942Z,7.67
2018-05-12T23:10:07.481Z,7.93
2018-05-12T23:12:34.851Z,7.63
2018-05-12T23:15:02.970Z,7.10
2018-05-12T23:17:31.978Z,7.47
2018-05-12T23:19:59.426Z,7.43
2018-05-12T23:22:27.654Z,7.87
2018-05-12T23:24:55.104Z,6.53
2018-05-12T23:27:22.564Z,7.00
2018-05-12T23:29:49.998Z,6.90
2018-05-12T23:32:17.463Z,6.60
2018-05-12T23:34:44.911Z,9.70
2018-05-12T23:37:12.390Z,9.70
2018-05-12T23:39:39.839Z,7.23
2018-05-12T23:42:07.277Z,8.93
2018-05-12T23:44:34.739Z,7.33
2018-05-12T23:47:02.178Z,8.27
2018-05-12T23:49:29.624Z,7.43
2018-05-12T23:51:57.854Z,7.53
2018-05-12T23:54:25.295Z,7.23
2018-05-12T23:56:52.762Z,10.60
2018-05-12T23:59:20.203Z,9.23
